Time;durP1;ratioP1;P1;durP2;ratioP2;P2;SDS_P1;SDS_P2;PMS_P1;PMS_P2;Temp;Humidity;BMP_temperature;BMP_pressure;BME280_temperature;BME280_humidity;BME280_pressure;Samples;Min_cycle;Max_cycle;Signal;HPM_P1;HPM_P2
2021/10/26 00:01:50;;;;;;;28.42;14.20;;;;;;;-146.90;100.00;60518.97;5027606;28;20021;-78
2021/10/26 00:04:15;;;;;;;31.33;14.48;;;;;;;-146.90;100.00;60518.97;5029527;28;20486;-78
2021/10/26 00:06:41;;;;;;;28.77;14.02;;;;;;;-146.90;100.00;60518.97;5028523;28;20147;-78
2021/10/26 00:09:06;;;;;;;28.90;13.90;;;;;;;-146.90;100.00;60518.97;5029494;28;20053;-78
2021/10/26 00:11:32;;;;;;;29.52;13.75;;;;;;;-146.90;100.00;60518.97;5028498;28;20025;-78
2021/10/26 00:13:58;;;;;;;23.45;12.68;;;;;;;-146.90;100.00;60518.97;5029270;28;20593;-78
2021/10/26 00:16:23;;;;;;;26.45;13.23;;;;;;;-146.90;100.00;60518.97;5028701;28;20025;-78
2021/10/26 00:18:48;;;;;;;27.13;12.57;;;;;;;-146.90;100.00;60518.97;5028865;28;20049;-78
2021/10/26 00:21:14;;;;;;;26.58;12.20;;;;;;;-146.90;100.00;60518.97;5027585;28;20147;-78
2021/10/26 00:23:40;;;;;;;24.60;12.27;;;;;;;-146.90;100.00;60518.97;5027501;28;20029;-77
2021/10/26 00:26:06;;;;;;;33.85;12.88;;;;;;;-146.90;100.00;60518.97;5028804;28;20062;-77
2021/10/26 00:28:32;;;;;;;31.17;12.98;;;;;;;-146.90;100.00;60518.97;5027538;28;20112;-77
2021/10/26 00:30:58;;;;;;;21.25;10.43;;;;;;;-146.90;100.00;60518.97;5028020;28;20040;-78
2021/10/26 00:33:24;;;;;;;21.95;11.77;;;;;;;-146.90;100.00;60518.97;5028544;28;20459;-78
2021/10/26 00:35:50;;;;;;;27.80;11.43;;;;;;;-146.90;100.00;60518.97;5028058;28;20021;-78
2021/10/26 00:38:15;;;;;;;28.33;11.85;;;;;;;-146.90;100.00;60518.97;5028832;28;20037;-77
2021/10/26 00:40:43;;;;;;;27.92;12.55;;;;;;;-146.90;100.00;60518.97;5029237;28;20513;-77
2021/10/26 00:43:08;;;;;;;25.50;10.90;;;;;;;-146.90;100.00;60518.97;5027827;28;20022;-78
2021/10/26 00:45:33;;;;;;;22.88;11.43;;;;;;;-146.90;100.00;60518.97;5028626;28;20028;-77
2021/10/26 00:47:59;;;;;;;29.30;11.95;;;;;;;-146.90;100.00;60518.97;5027318;28;20037;-77
2021/10/26 00:50:24;;;;;;;34.65;12.30;;;;;;;-146.90;100.00;60518.97;5028238;28;20116;-77
2021/10/26 00:52:49;;;;;;;27.60;11.45;;;;;;;-146.90;100.00;60518.97;5028683;28;20463;-76
2021/10/26 00:55:15;;;;;;;25.15;10.95;;;;;;;-146.90;100.00;60518.97;5027956;28;20412;-77
2021/10/26 00:57:40;;;;;;;28.85;11.68;;;;;;;-146.90;100.00;60518.97;5028671;28;20510;-77
2021/10/26 01:00:07;;;;;;;30.88;12.00;;;;;;;-146.90;100.00;60518.97;5028440;28;20095;-77
2021/10/26 01:02:33;;;;;;;26.27;11.55;;;;;;;-146.90;100.00;60518.97;5026922;28;20528;-78
2021/10/26 01:04:58;;;;;;;31.85;12.60;;;;;;;-146.90;100.00;60518.97;5027021;28;20033;-77
2021/10/26 01:07:24;;;;;;;27.38;11.27;;;;;;;-146.90;100.00;60518.97;5028378;28;20108;-77
2021/10/26 01:09:49;;;;;;;27.52;12.05;;;;;;;-146.90;100.00;60518.97;5026997;28;20451;-78
2021/10/26 01:12:14;;;;;;;24.42;11.43;;;;;;;-146.90;100.00;60518.97;5028222;28;20510;-78
2021/10/26 01:14:40;;;;;;;24.38;10.82;;;;;;;-146.90;100.00;60518.97;5028422;28;20030;-78
2021/10/26 01:17:07;;;;;;;28.30;10.65;;;;;;;-146.90;100.00;60518.97;5026953;28;20065;-78
2021/10/26 01:19:46;;;;;;;32.28;11.75;;;;;;;-146.90;100.00;60518.97;5028392;28;20022;-78
2021/10/26 01:22:12;;;;;;;35.15;12.18;;;;;;;-146.90;100.00;60518.97;5028058;28;20036;-77
2021/10/26 01:24:37;;;;;;;29.00;10.80;;;;;;;-146.90;100.00;60518.97;5027086;28;20071;-78
2021/10/26 01:27:03;;;;;;;35.38;11.45;;;;;;;-146.90;100.00;60518.97;5028304;28;20033;-78
2021/10/26 01:29:28;;;;;;;31.40;10.88;;;;;;;-146.90;100.00;60518.97;5028374;28;20033;-78
2021/10/26 01:31:54;;;;;;;31.90;11.57;;;;;;;-146.90;100.00;60518.97;5028624;28;20021;-78
2021/10/26 01:34:19;;;;;;;28.60;10.52;;;;;;;-146.90;100.00;60518.97;5028055;28;20625;-78
2021/10/26 01:36:44;;;;;;;23.92;11.00;;;;;;;-146.90;100.00;60518.97;5027708;28;20422;-78
2021/10/26 01:39:10;;;;;;;34.58;10.77;;;;;;;-146.90;100.00;60518.97;5028151;28;20061;-77
2021/10/26 01:41:35;;;;;;;27.00;11.10;;;;;;;-146.90;100.00;60518.97;5027371;28;20148;-77
2021/10/26 01:44:01;;;;;;;27.30;11.15;;;;;;;-146.90;100.00;60518.97;5028461;28;20048;-77
2021/10/26 01:46:26;;;;;;;30.92;11.70;;;;;;;-146.90;100.00;60518.97;5028053;28;20427;-78
2021/10/26 01:48:51;;;;;;;26.42;9.88;;;;;;;-146.90;100.00;60518.97;5032048;28;20077;-78
2021/10/26 01:51:17;;;;;;;21.33;10.25;;;;;;;-146.90;100.00;60518.97;5031448;28;20071;-77
2021/10/26 01:53:42;;;;;;;27.08;10.40;;;;;;;-146.90;100.00;60518.97;5031885;28;20429;-77
2021/10/26 01:56:08;;;;;;;27.73;10.77;;;;;;;-146.90;100.00;60518.97;5031771;28;20022;-77
2021/10/26 01:58:34;;;;;;;24.75;11.35;;;;;;;-146.90;100.00;60518.97;5032265;28;20039;-77
2021/10/26 02:00:59;;;;;;;25.70;10.55;;;;;;;-146.90;100.00;60518.97;5031720;28;20079;-77
2021/10/26 02:03:25;;;;;;;32.75;12.63;;;;;;;-146.90;100.00;60518.97;5030468;28;20103;-77
2021/10/26 02:05:50;;;;;;;29.60;11.65;;;;;;;-146.90;100.00;60518.97;5020231;28;20352;-78
2021/10/26 02:08:16;;;;;;;24.50;12.45;;;;;;;-146.90;100.00;60518.97;5031686;28;20045;-77
2021/10/26 02:10:41;;;;;;;27.98;11.95;;;;;;;-146.90;100.00;60518.97;5031146;28;20025;-77
2021/10/26 02:13:06;;;;;;;26.98;11.25;;;;;;;-146.90;100.00;60518.97;5031558;28;20391;-77
2021/10/26 02:15:32;;;;;;;29.40;12.38;;;;;;;-146.90;100.00;60518.97;5030618;28;20108;-77
2021/10/26 02:17:57;;;;;;;26.77;13.00;;;;;;;-146.90;100.00;60518.97;5029931;28;20437;-77
2021/10/26 02:20:22;;;;;;;33.95;12.15;;;;;;;-146.90;100.00;60518.97;5031005;28;20049;-77
2021/10/26 02:22:48;;;;;;;37.53;13.48;;;;;;;-146.90;100.00;60518.97;5030642;28;20022;-76
2021/10/26 02:25:13;;;;;;;30.75;12.90;;;;;;;-146.90;100.00;60518.97;5030659;28;20014;-77
2021/10/26 02:27:39;;;;;;;36.78;14.68;;;;;;;-146.90;100.00;60518.97;5031087;28;20029;-78
2021/10/26 02:30:05;;;;;;;31.35;13.43;;;;;;;-146.90;100.00;60518.97;5031374;28;20017;-78
2021/10/26 02:32:30;;;;;;;37.72;13.70;;;;;;;-146.90;100.00;60518.97;5029786;28;20109;-78
2021/10/26 02:34:56;;;;;;;31.52;14.45;;;;;;;-146.90;100.00;60518.97;5030391;28;20112;-78
2021/10/26 02:37:21;;;;;;;37.90;13.68;;;;;;;-146.90;100.00;60518.97;5022845;28;20032;-78
2021/10/26 02:39:46;;;;;;;28.75;13.50;;;;;;;-146.90;100.00;60518.97;5030768;28;20025;-78
2021/10/26 02:42:12;;;;;;;30.88;13.15;;;;;;;-146.90;100.00;60518.97;5030300;28;20481;-78
2021/10/26 02:44:37;;;;;;;34.85;13.70;;;;;;;-146.90;100.00;60518.97;5031202;28;20025;-78
2021/10/26 02:47:03;;;;;;;34.25;13.88;;;;;;;-146.90;100.00;60518.97;5030097;28;20053;-78
2021/10/26 02:49:28;;;;;;;31.38;12.43;;;;;;;-146.90;100.00;60518.97;5029487;28;20053;-78
2021/10/26 02:51:54;;;;;;;28.27;11.90;;;;;;;-146.90;100.00;60518.97;5030144;28;20112;-78
2021/10/26 02:54:19;;;;;;;34.33;12.68;;;;;;;-146.90;100.00;60518.97;5030670;28;20498;-78
2021/10/26 02:56:45;;;;;;;38.22;13.57;;;;;;;-146.90;100.00;60518.97;5029987;28;20022;-78
2021/10/26 02:59:10;;;;;;;35.08;12.43;;;;;;;-146.90;100.00;60518.97;5030173;28;20039;-78
2021/10/26 03:01:35;;;;;;;33.00;11.73;;;;;;;-146.90;100.00;60518.97;5030786;28;20087;-78
2021/10/26 03:04:01;;;;;;;31.77;12.68;;;;;;;-146.90;100.00;60518.97;5030584;28;20072;-78
2021/10/26 03:06:26;;;;;;;33.20;11.52;;;;;;;-146.90;100.00;60518.97;5029695;28;20084;-78
2021/10/26 03:08:51;;;;;;;35.47;11.98;;;;;;;-146.90;100.00;60518.97;5030234;28;20072;-78
2021/10/26 03:11:17;;;;;;;31.55;11.30;;;;;;;-146.90;100.00;60518.97;5030191;28;20143;-77
2021/10/26 03:13:43;;;;;;;27.38;10.18;;;;;;;-146.90;100.00;60518.97;5030547;28;20100;-77
2021/10/26 03:16:08;;;;;;;30.45;10.90;;;;;;;-146.90;100.00;60518.97;5030198;28;20267;-77
2021/10/26 03:18:33;;;;;;;26.60;11.30;;;;;;;-146.90;100.00;60518.97;5030248;28;20527;-77
2021/10/26 03:20:59;;;;;;;32.10;10.75;;;;;;;-146.90;100.00;60518.97;5030181;28;20468;-76
2021/10/26 03:23:25;;;;;;;27.98;10.05;;;;;;;-146.90;100.00;60518.97;5029983;28;20154;-77
2021/10/26 03:25:50;;;;;;;28.70;10.38;;;;;;;-146.90;100.00;60518.97;5029134;28;20514;-77
2021/10/26 03:28:16;;;;;;;28.98;10.52;;;;;;;-146.90;100.00;60518.97;5029923;28;20036;-77
2021/10/26 03:30:42;;;;;;;29.38;9.32;;;;;;;-146.90;100.00;60518.97;5030382;28;20112;-76
2021/10/26 03:33:07;;;;;;;23.83;9.15;;;;;;;-146.90;100.00;60518.97;5030002;28;20022;-76
2021/10/26 03:35:32;;;;;;;31.55;9.57;;;;;;;-146.90;100.00;60518.97;5027957;28;20490;-77
2021/10/26 03:38:00;;;;;;;24.35;8.73;;;;;;;-146.90;100.00;60518.97;5030096;28;20033;-77
2021/10/26 03:40:25;;;;;;;22.48;8.82;;;;;;;-146.90;100.00;60518.97;5028299;28;20112;-78
2021/10/26 03:42:50;;;;;;;29.40;9.23;;;;;;;-146.90;100.00;60518.97;5029798;28;20108;-77
2021/10/26 03:45:16;;;;;;;30.17;9.73;;;;;;;-146.90;100.00;60518.97;5029104;28;20017;-77
2021/10/26 03:47:43;;;;;;;25.02;9.07;;;;;;;-146.90;100.00;60518.97;5029833;28;20055;-77
2021/10/26 03:50:09;;;;;;;24.52;8.90;;;;;;;-146.90;100.00;60518.97;5029422;28;20022;-77
2021/10/26 03:52:34;;;;;;;26.00;9.02;;;;;;;-146.90;100.00;60518.97;5029911;28;20104;-77
2021/10/26 03:54:59;;;;;;;24.27;9.38;;;;;;;-146.90;100.00;60518.97;5029013;28;20108;-77
2021/10/26 03:57:25;;;;;;;30.42;9.30;;;;;;;-146.90;100.00;60518.97;5027516;28;20013;-77
2021/10/26 03:59:50;;;;;;;23.63;9.65;;;;;;;-146.90;100.00;60518.97;5028152;28;20403;-77
2021/10/26 04:02:23;;;;;;;28.42;10.60;;;;;;;-146.90;100.00;60518.97;5029160;28;20092;-77
2021/10/26 04:04:49;;;;;;;30.85;10.45;;;;;;;-146.90;100.00;60518.97;5028509;28;20549;-77
2021/10/26 04:07:14;;;;;;;31.80;10.80;;;;;;;-146.90;100.00;60518.97;5028998;28;20033;-77
2021/10/26 04:09:52;;;;;;;26.55;10.20;;;;;;;-146.90;100.00;60518.97;5028605;28;20104;-76
2021/10/26 04:12:24;;;;;;;30.02;9.63;;;;;;;-146.90;100.00;60518.97;5029366;28;20026;-77
2021/10/26 04:14:54;;;;;;;31.08;11.25;;;;;;;-146.90;100.00;60518.97;5028448;28;20021;-77
2021/10/26 04:17:20;;;;;;;27.80;9.73;;;;;;;-146.90;100.00;60518.97;5027672;28;20104;-77
2021/10/26 04:19:47;;;;;;;28.85;10.55;;;;;;;-146.90;100.00;60518.97;5028572;28;20029;-78
2021/10/26 04:22:13;;;;;;;31.65;11.45;;;;;;;-146.90;100.00;60518.97;5029000;28;20041;-77
2021/10/26 04:24:39;;;;;;;30.35;11.10;;;;;;;-146.90;100.00;60518.97;5028379;28;20304;-77
2021/10/26 04:27:04;;;;;;;27.52;10.52;;;;;;;-146.90;100.00;60518.97;5027360;28;20406;-77
2021/10/26 04:29:30;;;;;;;32.72;11.93;;;;;;;-146.90;100.00;60518.97;5028619;28;20108;-77
2021/10/26 04:31:55;;;;;;;28.67;11.52;;;;;;;-146.90;100.00;60518.97;5028668;28;20482;-77
2021/10/26 04:34:20;;;;;;;31.25;11.40;;;;;;;-146.90;100.00;60518.97;5028594;28;20048;-78
2021/10/26 04:36:46;;;;;;;34.70;11.48;;;;;;;-146.90;100.00;60518.97;5028100;28;20026;-78
2021/10/26 04:39:11;;;;;;;30.23;10.88;;;;;;;-146.90;100.00;60518.97;5029199;28;20243;-76
2021/10/26 04:41:37;;;;;;;42.17;12.23;;;;;;;-146.90;100.00;60518.97;5028780;28;20021;-77
2021/10/26 04:44:03;;;;;;;28.35;11.52;;;;;;;-146.90;100.00;60518.97;5028813;28;20021;-76
2021/10/26 04:46:32;;;;;;;32.63;12.15;;;;;;;-146.90;100.00;60518.97;5026412;28;20041;-77
2021/10/26 04:48:57;;;;;;;32.83;12.23;;;;;;;-146.90;100.00;60518.97;5028996;28;20026;-78
2021/10/26 04:51:23;;;;;;;30.42;11.27;;;;;;;-146.90;100.00;60518.97;5028594;28;20021;-76
2021/10/26 04:53:48;;;;;;;43.53;13.10;;;;;;;-146.90;100.00;60518.97;5026876;28;20025;-78
2021/10/26 04:56:13;;;;;;;39.10;13.20;;;;;;;-146.90;100.00;60518.97;5026758;28;20032;-77
2021/10/26 04:58:39;;;;;;;32.33;13.10;;;;;;;-146.90;100.00;60518.97;5027099;28;20065;-77
2021/10/26 05:01:04;;;;;;;28.92;13.23;;;;;;;-146.90;100.00;60518.97;5028069;28;20303;-76
2021/10/26 05:03:31;;;;;;;35.90;13.77;;;;;;;-146.90;100.00;60518.97;5028356;28;20037;-77
2021/10/26 05:05:57;;;;;;;39.25;13.30;;;;;;;-146.90;100.00;60518.97;5026214;28;20028;-78
2021/10/26 05:08:24;;;;;;;32.25;13.25;;;;;;;-146.90;100.00;60518.97;5028423;28;20034;-77
2021/10/26 05:10:50;;;;;;;32.10;12.63;;;;;;;-146.90;100.00;60518.97;5028020;28;20021;-78
2021/10/26 05:13:17;;;;;;;36.05;13.65;;;;;;;-146.90;100.00;60518.97;5026731;28;20427;-77
2021/10/26 05:15:42;;;;;;;39.55;13.93;;;;;;;-146.90;100.00;60518.97;5026420;28;20033;-77
2021/10/26 05:18:10;;;;;;;34.95;13.35;;;;;;;-146.90;100.00;60518.97;5028505;28;20037;-77
2021/10/26 05:20:36;;;;;;;37.03;13.50;;;;;;;-146.90;100.00;60518.97;5027873;28;20471;-78
2021/10/26 05:23:03;;;;;;;39.03;13.30;;;;;;;-146.90;100.00;60518.97;5015185;28;20104;-77
2021/10/26 05:25:28;;;;;;;30.58;13.63;;;;;;;-146.90;100.00;60518.97;5011147;28;20065;-78
2021/10/26 05:27:53;;;;;;;36.05;13.50;;;;;;;-146.90;100.00;60518.97;5012265;28;20485;-78
2021/10/26 05:30:19;;;;;;;32.72;13.38;;;;;;;-146.90;100.00;60518.97;5020539;28;20071;-78
2021/10/26 05:32:44;;;;;;;40.92;14.68;;;;;;;-146.90;100.00;60518.97;5031625;28;20061;-78
2021/10/26 05:35:10;;;;;;;39.85;16.48;;;;;;;-146.90;100.00;60518.97;5030255;28;20482;-78
2021/10/26 05:37:36;;;;;;;40.15;16.30;;;;;;;-146.90;100.00;60518.97;5030700;28;20053;-78
2021/10/26 05:40:03;;;;;;;37.60;16.17;;;;;;;-146.90;100.00;60518.97;5030236;28;20490;-78
2021/10/26 05:42:28;;;;;;;38.58;15.23;;;;;;;-146.90;100.00;60518.97;5031705;28;20595;-77
2021/10/26 05:44:55;;;;;;;33.05;15.35;;;;;;;-146.90;100.00;60518.97;5030900;28;20024;-78
2021/10/26 05:47:21;;;;;;;41.05;15.52;;;;;;;-146.90;100.00;60518.97;5031385;28;20430;-77
2021/10/26 05:49:46;;;;;;;32.33;15.32;;;;;;;-146.90;100.00;60518.97;5017967;28;20117;-78
2021/10/26 05:52:12;;;;;;;42.33;16.85;;;;;;;-146.90;100.00;60518.97;5013026;28;20527;-78
2021/10/26 05:54:38;;;;;;;32.80;14.63;;;;;;;-146.90;100.00;60518.97;5011705;28;20022;-78
2021/10/26 05:57:04;;;;;;;34.90;15.60;;;;;;;-146.90;100.00;60518.97;5012488;28;20413;-77
2021/10/26 05:59:30;;;;;;;41.83;14.77;;;;;;;-146.90;100.00;60518.97;5013686;28;20053;-76
2021/10/26 06:01:55;;;;;;;39.60;16.10;;;;;;;-146.90;100.00;60518.97;5012357;28;20017;-77
2021/10/26 06:04:21;;;;;;;32.92;15.63;;;;;;;-146.90;100.00;60518.97;5013606;28;20030;-76
2021/10/26 06:06:46;;;;;;;45.88;17.35;;;;;;;-146.90;100.00;60518.97;5010019;28;20022;-77
2021/10/26 06:09:15;;;;;;;34.03;16.33;;;;;;;-146.90;100.00;60518.97;5013868;28;20088;-77
2021/10/26 06:11:40;;;;;;;37.17;16.33;;;;;;;-146.90;100.00;60518.97;5031025;28;20545;-77
2021/10/26 06:14:08;;;;;;;45.72;16.15;;;;;;;-146.90;100.00;60518.97;5031207;28;20025;-77
2021/10/26 06:16:36;;;;;;;34.65;15.60;;;;;;;-146.90;100.00;60518.97;5023981;28;20030;-78
2021/10/26 06:19:02;;;;;;;33.00;14.65;;;;;;;-146.90;100.00;60518.97;5024523;28;20060;-77
2021/10/26 06:21:28;;;;;;;37.55;15.45;;;;;;;-146.90;100.00;60518.97;5030073;28;20090;-77
2021/10/26 06:23:54;;;;;;;38.35;15.50;;;;;;;-146.90;100.00;60518.97;5030711;28;20491;-77
2021/10/26 06:26:20;;;;;;;36.75;15.07;;;;;;;-146.90;100.00;60518.97;5029833;28;20487;-76
2021/10/26 06:28:46;;;;;;;35.80;14.00;;;;;;;-146.90;100.00;60518.97;5009200;28;20483;-75
2021/10/26 06:31:11;;;;;;;33.38;14.85;;;;;;;-146.90;100.00;60518.97;5026221;28;20048;-77
2021/10/26 06:33:37;;;;;;;36.47;14.77;;;;;;;-146.90;100.00;60518.97;5028868;28;20061;-77
2021/10/26 06:36:02;;;;;;;33.08;13.30;;;;;;;-146.90;100.00;60518.97;5030343;28;20568;-77
2021/10/26 06:38:28;;;;;;;32.78;12.73;;;;;;;-146.90;100.00;60518.97;5013932;28;20065;-78
2021/10/26 06:40:53;;;;;;;32.00;13.73;;;;;;;-146.90;100.00;60518.97;5030255;28;20455;-79
2021/10/26 06:43:19;;;;;;;37.70;13.07;;;;;;;-146.90;100.00;60518.97;5030527;28;20037;-77
2021/10/26 06:45:44;;;;;;;26.30;13.15;;;;;;;-146.90;100.00;60518.97;5024018;28;20025;-76
2021/10/26 06:48:10;;;;;;;31.52;12.50;;;;;;;-146.90;100.00;60518.97;5012468;28;20030;-77
2021/10/26 06:50:35;;;;;;;34.25;13.25;;;;;;;-146.90;100.00;60518.97;5025499;28;20113;-77
2021/10/26 06:53:00;;;;;;;32.08;12.82;;;;;;;-146.90;100.00;60518.97;5020471;28;20017;-77
2021/10/26 06:55:26;;;;;;;27.08;11.60;;;;;;;-146.90;100.00;60518.97;5023789;28;20402;-77
2021/10/26 06:57:52;;;;;;;37.55;12.88;;;;;;;-146.90;100.00;60518.97;5029050;28;20394;-78
2021/10/26 07:00:18;;;;;;;33.78;12.93;;;;;;;-146.90;100.00;60518.97;5028561;28;20033;-78
2021/10/26 07:02:51;;;;;;;24.55;11.80;;;;;;;-146.90;100.00;60518.97;5029608;28;20040;-80
2021/10/26 07:05:18;;;;;;;29.98;12.35;;;;;;;-146.90;100.00;60518.97;5028792;28;20029;-79
2021/10/26 07:07:44;;;;;;;33.55;12.88;;;;;;;-146.90;100.00;60518.97;5029329;28;20025;-77
2021/10/26 07:10:10;;;;;;;24.00;11.15;;;;;;;-146.90;100.00;60518.97;5029507;28;20068;-78
2021/10/26 07:12:35;;;;;;;24.08;11.23;;;;;;;-146.90;100.00;60518.97;5030346;28;20318;-77
2021/10/26 07:15:06;;;;;;;25.35;11.27;;;;;;;-146.90;100.00;60518.97;5028664;28;20033;-79
2021/10/26 07:17:31;;;;;;;25.10;11.25;;;;;;;-146.90;100.00;60518.97;5030291;28;20029;-79
2021/10/26 07:19:56;;;;;;;27.77;11.07;;;;;;;-146.90;100.00;60518.97;5029272;28;20029;-78
2021/10/26 07:22:22;;;;;;;24.77;10.70;;;;;;;-146.90;100.00;60518.97;5029607;28;20060;-78
2021/10/26 07:24:55;;;;;;;29.08;10.73;;;;;;;-146.90;100.00;60518.97;5028780;28;20021;-84
2021/10/26 07:27:21;;;;;;;25.13;10.82;;;;;;;-146.90;100.00;60518.97;5028203;28;20151;-77
2021/10/26 07:29:46;;;;;;;25.17;11.13;;;;;;;-146.90;100.00;60518.97;5028587;28;20498;-77
2021/10/26 07:32:12;;;;;;;28.55;10.88;;;;;;;-146.90;100.00;60518.97;5028782;28;20487;-78
2021/10/26 07:34:37;;;;;;;21.08;10.55;;;;;;;-146.90;100.00;60518.97;5028436;28;20030;-78
2021/10/26 07:37:03;;;;;;;25.15;10.60;;;;;;;-146.90;100.00;60518.97;5028094;28;20017;-78
2021/10/26 07:41:56;;;;;;;23.00;9.30;;;;;;;-146.90;100.00;60518.97;5029065;28;20365;-78
2021/10/26 07:44:22;;;;;;;22.67;9.50;;;;;;;-146.90;100.00;60518.97;5028568;28;20029;-79
2021/10/26 07:46:47;;;;;;;19.85;9.30;;;;;;;-146.90;100.00;60518.97;5029450;28;20099;-75
2021/10/26 07:49:13;;;;;;;18.52;9.15;;;;;;;-146.90;100.00;60518.97;5029547;28;20472;-73
2021/10/26 07:51:38;;;;;;;20.98;9.80;;;;;;;-146.90;100.00;60518.97;5022664;28;20360;-75
2021/10/26 07:54:04;;;;;;;21.25;9.13;;;;;;;-146.90;100.00;60518.97;5027371;28;20020;-79
2021/10/26 07:56:29;;;;;;;18.50;8.77;;;;;;;-146.90;100.00;60518.97;5027828;28;20056;-75
2021/10/26 07:58:56;;;;;;;24.92;9.45;;;;;;;-146.90;100.00;60518.97;5027991;28;20047;-74
2021/10/26 08:01:21;;;;;;;29.50;9.00;;;;;;;-146.90;100.00;60518.97;5029118;28;20043;-76
2021/10/26 08:03:46;;;;;;;22.15;8.60;;;;;;;-146.90;100.00;60518.97;5029221;28;20100;-75
2021/10/26 08:06:11;;;;;;;20.95;8.57;;;;;;;-146.90;100.00;60518.97;5029146;28;20063;-75
2021/10/26 08:08:37;;;;;;;21.50;8.70;;;;;;;-146.90;100.00;60518.97;5028150;28;20037;-74
2021/10/26 08:11:02;;;;;;;20.98;8.77;;;;;;;-146.90;100.00;60518.97;5028998;28;20112;-73
2021/10/26 08:13:28;;;;;;;23.27;8.35;;;;;;;-146.90;100.00;60518.97;5029088;28;20347;-73
2021/10/26 08:15:53;;;;;;;17.10;8.13;;;;;;;-146.90;100.00;60518.97;5027302;28;20083;-73
2021/10/26 08:18:19;;;;;;;17.67;7.68;;;;;;;-146.90;100.00;60518.97;5028952;28;20037;-73
2021/10/26 08:20:46;;;;;;;19.08;8.73;;;;;;;-146.90;100.00;60518.97;5028841;28;20296;-74
2021/10/26 08:23:11;;;;;;;20.50;7.70;;;;;;;-146.90;100.00;60518.97;5028468;28;20041;-73
2021/10/26 08:25:40;;;;;;;18.70;7.78;;;;;;;-146.90;100.00;60518.97;5027896;28;20030;-73
2021/10/26 08:28:09;;;;;;;19.73;7.70;;;;;;;-146.90;100.00;60518.97;5029245;28;20116;-74
2021/10/26 08:33:35;;;;;;;17.73;6.85;;;;;;;-146.90;100.00;60518.97;5028964;28;20030;-75
2021/10/26 08:36:00;;;;;;;19.83;8.03;;;;;;;-146.90;100.00;60518.97;5027057;28;20044;-76
2021/10/26 08:38:25;;;;;;;17.63;7.72;;;;;;;-146.90;100.00;60518.97;5028846;28;20075;-74
2021/10/26 08:40:51;;;;;;;18.20;6.78;;;;;;;-146.90;100.00;60518.97;5028865;28;20363;-72
2021/10/26 08:43:18;;;;;;;14.63;7.00;;;;;;;-146.90;100.00;60518.97;5028464;28;20021;-72
2021/10/26 08:45:47;;;;;;;18.15;6.57;;;;;;;-146.90;100.00;60518.97;5028115;28;20025;-73
2021/10/26 08:48:19;;;;;;;14.68;6.63;;;;;;;-146.90;100.00;60518.97;5031399;28;20021;-75
2021/10/26 08:50:49;;;;;;;13.52;6.28;;;;;;;-146.90;100.00;60518.97;5009284;28;20117;-76
2021/10/26 08:53:14;;;;;;;18.65;6.65;;;;;;;-146.90;100.00;60518.97;5012929;28;20025;-74
2021/10/26 08:55:40;;;;;;;16.38;5.85;;;;;;;-146.90;100.00;60518.97;5027893;28;20038;-73
2021/10/26 08:58:08;;;;;;;18.48;6.45;;;;;;;-146.90;100.00;60518.97;5028628;28;20017;-75
2021/10/26 09:00:35;;;;;;;15.15;6.57;;;;;;;-146.90;100.00;60518.97;5027344;28;20072;-74
2021/10/26 09:03:15;;;;;;;17.67;6.05;;;;;;;-146.90;100.00;60518.97;5027165;28;20043;-73
2021/10/26 09:05:46;;;;;;;16.35;6.95;;;;;;;-146.90;100.00;60518.97;5028099;28;20218;-74
2021/10/26 09:08:12;;;;;;;14.07;5.97;;;;;;;-146.90;100.00;60518.97;5028610;28;20037;-73
2021/10/26 09:10:39;;;;;;;16.40;6.40;;;;;;;-146.90;100.00;60518.97;5027421;28;20025;-72
2021/10/26 09:18:47;;;;;;;21.10;7.15;;;;;;;-146.90;100.00;60518.97;5028174;28;20040;-73
2021/10/26 09:21:30;;;;;;;14.80;6.30;;;;;;;-146.90;100.00;60518.97;5027683;28;20498;-73
2021/10/26 09:23:57;;;;;;;19.73;7.60;;;;;;;-146.90;100.00;60518.97;5028052;28;20087;-75
2021/10/26 09:26:43;;;;;;;16.60;6.68;;;;;;;-146.90;100.00;60518.97;5026279;28;20049;-72
2021/10/26 09:29:08;;;;;;;18.08;7.13;;;;;;;-146.90;100.00;60518.97;5019792;28;20021;-72
2021/10/26 09:31:36;;;;;;;16.10;6.60;;;;;;;-146.90;100.00;60518.97;5018977;28;20038;-72
2021/10/26 09:34:08;;;;;;;18.80;6.75;;;;;;;-146.90;100.00;60518.97;5016518;28;20406;-72
2021/10/26 09:36:37;;;;;;;15.40;6.50;;;;;;;-146.90;100.00;60518.97;5018400;28;20032;-72
2021/10/26 09:39:02;;;;;;;17.33;7.68;;;;;;;-146.90;100.00;60518.97;5016845;28;20438;-72
2021/10/26 09:41:27;;;;;;;18.10;8.13;;;;;;;-146.90;100.00;60518.97;5016188;28;20124;-72
2021/10/26 09:44:08;;;;;;;16.45;8.05;;;;;;;-146.90;100.00;60518.97;5018540;28;20125;-71
2021/10/26 09:46:33;;;;;;;19.75;8.43;;;;;;;-146.90;100.00;60518.97;5018108;28;20026;-72
2021/10/26 09:48:58;;;;;;;21.90;8.35;;;;;;;-146.90;100.00;60518.97;5016977;28;20390;-71
2021/10/26 09:51:24;;;;;;;20.73;8.73;;;;;;;-146.90;100.00;60518.97;5018589;28;20045;-73
2021/10/26 09:53:58;;;;;;;16.58;8.35;;;;;;;-146.90;100.00;60518.97;5027594;28;20105;-72
2021/10/26 09:56:24;;;;;;;16.83;8.75;;;;;;;-146.90;100.00;60518.97;5026818;28;20029;-72
2021/10/26 09:59:12;;;;;;;16.90;8.07;;;;;;;-146.90;100.00;60518.97;5027821;28;20352;-72
2021/10/26 10:01:50;;;;;;;18.80;8.25;;;;;;;-146.90;100.00;60518.97;5026760;28;20102;-71
2021/10/26 10:04:23;;;;;;;19.33;7.75;;;;;;;-146.90;100.00;60518.97;5017253;28;20464;-71
2021/10/26 10:06:51;;;;;;;18.05;7.88;;;;;;;-146.90;100.00;60518.97;5007442;28;20029;-71
2021/10/26 10:09:23;;;;;;;17.92;7.43;;;;;;;-146.90;100.00;60518.97;5011360;28;20379;-72
2021/10/26 10:12:04;;;;;;;18.15;7.53;;;;;;;-146.90;100.00;60518.97;5010951;28;20232;-71
2021/10/26 10:14:33;;;;;;;15.52;7.20;;;;;;;-146.90;100.00;60518.97;5010414;28;20022;-71
2021/10/26 10:16:59;;;;;;;13.07;6.30;;;;;;;-146.90;100.00;60518.97;5015503;28;20483;-71
2021/10/26 10:19:26;;;;;;;12.68;5.75;;;;;;;-146.90;100.00;60518.97;5030031;28;20025;-71
2021/10/26 10:21:51;;;;;;;11.18;5.25;;;;;;;-146.90;100.00;60518.97;5029476;28;20037;-71
2021/10/26 10:24:18;;;;;;;15.95;5.25;;;;;;;-146.90;100.00;60518.97;5032363;28;20027;-72
2021/10/26 10:26:49;;;;;;;15.75;5.45;;;;;;;-146.90;100.00;60518.97;5028647;28;20108;-72
2021/10/26 10:29:14;;;;;;;10.23;4.63;;;;;;;-146.90;100.00;60518.97;5013520;28;20037;-72
2021/10/26 10:31:40;;;;;;;14.07;4.72;;;;;;;-146.90;100.00;60518.97;5030084;28;20360;-72
2021/10/26 10:34:05;;;;;;;11.57;4.70;;;;;;;-146.90;100.00;60518.97;5031397;28;20038;-72
2021/10/26 10:36:33;;;;;;;13.98;5.35;;;;;;;-146.90;100.00;60518.97;5030318;28;20049;-73
2021/10/26 10:39:04;;;;;;;13.38;6.15;;;;;;;-146.90;100.00;60518.97;5030357;28;20033;-72
2021/10/26 10:41:33;;;;;;;13.27;5.85;;;;;;;-146.90;100.00;60518.97;4997108;28;20495;-72
2021/10/26 10:44:01;;;;;;;16.02;6.22;;;;;;;-146.90;100.00;60518.97;5010913;28;20029;-72
2021/10/26 10:46:47;;;;;;;15.05;5.65;;;;;;;-146.90;100.00;60518.97;5012993;28;20087;-72
2021/10/26 10:49:19;;;;;;;15.70;5.82;;;;;;;-146.90;100.00;60518.97;5030386;28;20033;-72
2021/10/26 10:52:04;;;;;;;15.35;5.53;;;;;;;-146.90;100.00;60518.97;5028857;28;20032;-72
2021/10/26 10:54:39;;;;;;;13.00;5.13;;;;;;;-146.90;100.00;60518.97;5029853;28;20037;-72
2021/10/26 10:57:32;;;;;;;13.65;5.90;;;;;;;-146.90;100.00;60518.97;5030450;28;20038;-72
2021/10/26 10:59:59;;;;;;;19.13;5.93;;;;;;;-146.90;100.00;60518.97;5030367;28;20044;-71
2021/10/26 11:02:36;;;;;;;16.15;5.30;;;;;;;-146.90;100.00;60518.97;5029942;28;20077;-72
2021/10/26 11:05:04;;;;;;;13.32;4.63;;;;;;;-146.90;100.00;60518.97;5029373;28;20037;-72
2021/10/26 11:07:42;;;;;;;10.52;4.40;;;;;;;-146.90;100.00;60518.97;5030332;28;20025;-72